MV Finola — OULQ2 — position and weather

sailwx.info

Track history (hours):
 
Tides and Currents Weather Stations Pressure Air Temp Water Temp Dewpoint Dewpoint Depression Visibility Wind Speed Wind Dir Waves Ship Positions

MV Finola

Last reported at 2014-Oct-15 22:30 UTC. Time now 2014-Oct-23 21:59 UTC.
Position S 12°03' E 129°40'.

Length 86 m; draft 3.8 m.

Type: Cargo ship. MMSI: 219483000.

Date/timePositionNaut miles runAvg speedWind from/ knotsBaromVisibWave heightAir tempDewpointWater temp
2014-Oct-15 22:30S 12°03' E 129°40'1111.0
2014-Oct-15 21:30S 12°06' E 129°50'1111.2
2014-Oct-15 20:30S 12°09' E 130°02'1111.4
2014-Oct-15 19:33S 12°12' E 130°12'1211.7
2014-Oct-15 18:33S 12°15' E 130°24'1212.0
2014-Oct-15 17:33S 12°18' E 130°36'1111.2
2014-Oct-15 16:33S 12°24' E 130°45'9 8.7
2014-Oct-15 15:31S 12°29' E 130°53'0 0.0
2014-Oct-15 14:31S 12°29' E 130°53'0 0.0
2014-Oct-15 13:31S 12°29' E 130°53'0 0.0
2014-Oct-15 12:31S 12°29' E 130°53'0 0.0
2014-Oct-15 11:31S 12°29' E 130°53'0 0.0
2014-Oct-15 10:31S 12°29' E 130°53'0 0.0
2014-Oct-15 09:22S 12°29' E 130°53'0 0.0
2014-Oct-15 08:22S 12°29' E 130°53'0 0.0
2014-Oct-15 07:25S 12°29' E 130°53'0 0.0
2014-Oct-15 06:25S 12°29' E 130°53'0 0.0
2014-Oct-15 05:25S 12°29' E 130°53'0 0.0
2014-Oct-15 04:25S 12°29' E 130°53'0 0.0
2014-Oct-15 03:24S 12°29' E 130°53'0 0.0
2014-Oct-15 02:27S 12°29' E 130°53'0 0.0
2014-Oct-15 01:27S 12°29' E 130°53'0 0.0
2014-Oct-15 00:27S 12°29' E 130°53'0 0.0
2014-Oct-14 23:27S 12°29' E 130°53'0 0.0
2014-Oct-14 22:27S 12°29' E 130°53'0 0.0
2014-Oct-14 21:30S 12°29' E 130°53'0 0.0
2014-Oct-14 20:30S 12°29' E 130°53'0 0.0
2014-Oct-14 19:30S 12°29' E 130°53'0 0.0
2014-Oct-14 18:30S 12°29' E 130°53'0 0.0
2014-Oct-14 17:30S 12°29' E 130°53'0 0.0
2014-Oct-14 16:33S 12°29' E 130°53'0 0.0
2014-Oct-14 15:33S 12°29' E 130°53'0 0.0
2014-Oct-14 14:33S 12°29' E 130°53'0 0.0
2014-Oct-14 13:33S 12°29' E 130°53'0 0.0
2014-Oct-14 12:33S 12°29' E 130°53'0 0.0
2014-Oct-14 11:33S 12°29' E 130°53'0 0.0
2014-Oct-14 10:33S 12°29' E 130°53'0 0.0
2014-Oct-14 09:33S 12°29' E 130°53'0 0.0
2014-Oct-14 08:33S 12°29' E 130°53'0 0.0
2014-Oct-14 07:33S 12°29' E 130°53'0 0.0
2014-Oct-14 06:33S 12°29' E 130°53'0 0.0
2014-Oct-14 05:24S 12°29' E 130°53'0 0.0
2014-Oct-14 04:24S 12°29' E 130°53'0 0.0
2014-Oct-14 03:24S 12°29' E 130°53'0 0.0
2014-Oct-14 02:27S 12°29' E 130°53'3 3.3
2014-Oct-14 01:33S 12°29' E 130°50'6 5.7
2014-Oct-14 00:32S 12°24' E 130°46'0 0.1
2014-Oct-13 23:32S 12°24' E 130°46'0 0.1
2014-Oct-13 22:32S 12°24' E 130°46'0 0.0
2014-Oct-13 21:32S 12°24' E 130°46'0 0.1
2014-Oct-13 20:33S 12°24' E 130°46'7 7.1
2014-Oct-13 19:33S 12°20' E 130°41'7 7.0
2014-Oct-13 18:33S 12°18' E 130°34'7 6.8
2014-Oct-13 17:33S 12°16' E 130°27'8 7.6
2014-Oct-13 16:33S 12°14' E 130°19'8 8.1
2014-Oct-13 15:33S 12°12' E 130°12'8 7.3
2014-Oct-13 14:30S 12°10' E 130°04'6 6.1
2014-Oct-13 13:31S 12°08' E 129°58'6 6.5
2014-Oct-13 12:33S 12°07' E 129°52'1110.0
2014-Oct-13 11:28S 12°04' E 129°41'910.3
2014-Oct-13 10:34S 12°01' E 129°32'1210.5
2014-Oct-13 09:27S 11°59' E 129°20'126 9.7
2014-Oct-12 20:33S 11°26' E 127°17'1110.7
2014-Oct-12 19:34S 11°23' E 127°06'9 9.2
2014-Oct-12 18:34S 11°20' E 126°57'  
Track history (hours):
 
Tides and Currents Weather Stations Pressure Air Temp Water Temp Dewpoint Dewpoint Depression Visibility Wind Speed Wind Dir Waves Ship Positions

MV Finola

Last reported at 2014-Oct-15 22:30 UTC. Time now 2014-Oct-23 21:59 UTC.
Position S 12°03' E 129°40'.

Length 86 m; draft 3.8 m.

Type: Cargo ship. MMSI: 219483000.

Date/timePositionNaut miles runAvg speedWind from/ knotsBaromVisibWave heightAir tempDewpointWater temp
2014-Oct-15 22:30S 12°03' E 129°40'1111.0
2014-Oct-15 21:30S 12°06' E 129°50'1111.2
2014-Oct-15 20:30S 12°09' E 130°02'1111.4
2014-Oct-15 19:33S 12°12' E 130°12'1211.7
2014-Oct-15 18:33S 12°15' E 130°24'1212.0
2014-Oct-15 17:33S 12°18' E 130°36'1111.2
2014-Oct-15 16:33S 12°24' E 130°45'9 8.7
2014-Oct-15 15:31S 12°29' E 130°53'0 0.0
2014-Oct-15 14:31S 12°29' E 130°53'0 0.0
2014-Oct-15 13:31S 12°29' E 130°53'0 0.0
2014-Oct-15 12:31S 12°29' E 130°53'0 0.0
2014-Oct-15 11:31S 12°29' E 130°53'0 0.0
2014-Oct-15 10:31S 12°29' E 130°53'0 0.0
2014-Oct-15 09:22S 12°29' E 130°53'0 0.0
2014-Oct-15 08:22S 12°29' E 130°53'0 0.0
2014-Oct-15 07:25S 12°29' E 130°53'0 0.0
2014-Oct-15 06:25S 12°29' E 130°53'0 0.0
2014-Oct-15 05:25S 12°29' E 130°53'0 0.0
2014-Oct-15 04:25S 12°29' E 130°53'0 0.0
2014-Oct-15 03:24S 12°29' E 130°53'0 0.0
2014-Oct-15 02:27S 12°29' E 130°53'0 0.0
2014-Oct-15 01:27S 12°29' E 130°53'0 0.0
2014-Oct-15 00:27S 12°29' E 130°53'0 0.0
2014-Oct-14 23:27S 12°29' E 130°53'0 0.0
2014-Oct-14 22:27S 12°29' E 130°53'0 0.0
2014-Oct-14 21:30S 12°29' E 130°53'0 0.0
2014-Oct-14 20:30S 12°29' E 130°53'0 0.0
2014-Oct-14 19:30S 12°29' E 130°53'0 0.0
2014-Oct-14 18:30S 12°29' E 130°53'0 0.0
2014-Oct-14 17:30S 12°29' E 130°53'0 0.0
2014-Oct-14 16:33S 12°29' E 130°53'0 0.0
2014-Oct-14 15:33S 12°29' E 130°53'0 0.0
2014-Oct-14 14:33S 12°29' E 130°53'0 0.0
2014-Oct-14 13:33S 12°29' E 130°53'0 0.0
2014-Oct-14 12:33S 12°29' E 130°53'0 0.0
2014-Oct-14 11:33S 12°29' E 130°53'0 0.0
2014-Oct-14 10:33S 12°29' E 130°53'0 0.0
2014-Oct-14 09:33S 12°29' E 130°53'0 0.0
2014-Oct-14 08:33S 12°29' E 130°53'0 0.0
2014-Oct-14 07:33S 12°29' E 130°53'0 0.0
2014-Oct-14 06:33S 12°29' E 130°53'0 0.0
2014-Oct-14 05:24S 12°29' E 130°53'0 0.0
2014-Oct-14 04:24S 12°29' E 130°53'0 0.0
2014-Oct-14 03:24S 12°29' E 130°53'0 0.0
2014-Oct-14 02:27S 12°29' E 130°53'3 3.3
2014-Oct-14 01:33S 12°29' E 130°50'6 5.7
2014-Oct-14 00:32S 12°24' E 130°46'0 0.1
2014-Oct-13 23:32S 12°24' E 130°46'0 0.1
2014-Oct-13 22:32S 12°24' E 130°46'0 0.0
2014-Oct-13 21:32S 12°24' E 130°46'0 0.1
2014-Oct-13 20:33S 12°24' E 130°46'7 7.1
2014-Oct-13 19:33S 12°20' E 130°41'7 7.0
2014-Oct-13 18:33S 12°18' E 130°34'7 6.8
2014-Oct-13 17:33S 12°16' E 130°27'8 7.6
2014-Oct-13 16:33S 12°14' E 130°19'8 8.1
2014-Oct-13 15:33S 12°12' E 130°12'8 7.3
2014-Oct-13 14:30S 12°10' E 130°04'6 6.1
2014-Oct-13 13:31S 12°08' E 129°58'6 6.5
2014-Oct-13 12:33S 12°07' E 129°52'1110.0
2014-Oct-13 11:28S 12°04' E 129°41'910.3
2014-Oct-13 10:34S 12°01' E 129°32'1210.5
2014-Oct-13 09:27S 11°59' E 129°20'126 9.7
2014-Oct-12 20:33S 11°26' E 127°17'1110.7
2014-Oct-12 19:34S 11°23' E 127°06'9 9.2
2014-Oct-12 18:34S 11°20' E 126°57'  

Dump ship's entire track history